sensor_id;sensor_type;location;lat;lon;timestamp;pressure;altitude;pressure_sealevel;temperature;humidity
46836;BME280;32573;51.290;6.926;2024-03-08T00:00:21;100356.34;;;6.32;100.00
46836;BME280;32573;51.290;6.926;2024-03-08T00:02:51;100360.59;;;6.30;100.00
46836;BME280;32573;51.290;6.926;2024-03-08T00:05:19;100355.25;;;6.26;100.00
46836;BME280;32573;51.290;6.926;2024-03-08T00:07:48;100348.16;;;6.24;100.00
46836;BME280;32573;51.290;6.926;2024-03-08T00:10:17;100345.50;;;6.22;100.00
46836;BME280;32573;51.290;6.926;2024-03-08T00:12:49;100343.56;;;6.18;100.00
46836;BME280;32573;51.290;6.926;2024-03-08T00:15:18;100346.09;;;6.17;100.00
46836;BME280;32573;51.290;6.926;2024-03-08T00:17:47;100339.94;;;6.15;100.00
46836;BME280;32573;51.290;6.926;2024-03-08T00:20:17;100338.09;;;6.12;100.00
46836;BME280;32573;51.290;6.926;2024-03-08T00:22:46;100344.03;;;6.10;100.00
46836;BME280;32573;51.290;6.926;2024-03-08T00:25:15;100342.31;;;6.10;100.00
46836;BME280;32573;51.290;6.926;2024-03-08T00:27:44;100339.56;;;6.07;100.00
46836;BME280;32573;51.290;6.926;2024-03-08T00:30:12;100336.00;;;6.05;100.00
46836;BME280;32573;51.290;6.926;2024-03-08T00:32:41;100331.59;;;6.04;100.00
46836;BME280;32573;51.290;6.926;2024-03-08T00:35:10;100323.66;;;6.01;100.00
46836;BME280;32573;51.290;6.926;2024-03-08T00:37:41;100334.06;;;6.01;100.00
46836;BME280;32573;51.290;6.926;2024-03-08T00:40:11;100333.09;;;5.99;100.00
46836;BME280;32573;51.290;6.926;2024-03-08T00:42:39;100327.69;;;5.94;100.00
46836;BME280;32573;51.290;6.926;2024-03-08T00:45:09;100324.97;;;5.93;100.00
46836;BME280;32573;51.290;6.926;2024-03-08T00:47:38;100320.53;;;5.90;100.00
46836;BME280;32573;51.290;6.926;2024-03-08T00:50:10;100323.03;;;5.89;100.00
46836;BME280;32573;51.290;6.926;2024-03-08T00:52:39;100321.13;;;5.84;100.00
46836;BME280;32573;51.290;6.926;2024-03-08T00:55:09;100317.56;;;5.82;100.00
46836;BME280;32573;51.290;6.926;2024-03-08T00:57:38;100318.28;;;5.80;100.00
46836;BME280;32573;51.290;6.926;2024-03-08T01:00:07;100310.41;;;5.78;100.00
46836;BME280;32573;51.290;6.926;2024-03-08T01:02:40;100313.00;;;5.78;100.00
46836;BME280;32573;51.290;6.926;2024-03-08T01:05:09;100306.84;;;5.76;100.00
46836;BME280;32573;51.290;6.926;2024-03-08T01:07:38;100306.84;;;5.76;100.00
46836;BME280;32573;51.290;6.926;2024-03-08T01:10:06;100295.53;;;5.74;100.00
46836;BME280;32573;51.290;6.926;2024-03-08T01:12:38;100301.50;;;5.73;100.00
46836;BME280;32573;51.290;6.926;2024-03-08T01:15:08;100291.06;;;5.72;100.00
46836;BME280;32573;51.290;6.926;2024-03-08T01:17:37;100291.88;;;5.71;100.00
46836;BME280;32573;51.290;6.926;2024-03-08T01:20:07;100292.69;;;5.70;100.00
46836;BME280;32573;51.290;6.926;2024-03-08T01:22:38;100282.22;;;5.68;100.00
46836;BME280;32573;51.290;6.926;2024-03-08T01:25:07;100277.84;;;5.67;100.00
46836;BME280;32573;51.290;6.926;2024-03-08T01:27:35;100276.06;;;5.66;100.00
46836;BME280;32573;51.290;6.926;2024-03-08T01:30:06;100275.09;;;5.64;100.00
46836;BME280;32573;51.290;6.926;2024-03-08T01:32:36;100264.63;;;5.62;100.00
46836;BME280;32573;51.290;6.926;2024-03-08T01:35:06;100266.34;;;5.62;100.00
46836;BME280;32573;51.290;6.926;2024-03-08T01:37:36;100259.34;;;5.61;100.00
46836;BME280;32573;51.290;6.926;2024-03-08T01:40:06;100257.59;;;5.60;100.00
46836;BME280;32573;51.290;6.926;2024-03-08T01:42:35;100255.78;;;5.59;100.00
46836;BME280;32573;51.290;6.926;2024-03-08T01:45:07;100254.13;;;5.59;100.00
46836;BME280;32573;51.290;6.926;2024-03-08T01:47:35;100258.38;;;5.59;100.00
46836;BME280;32573;51.290;6.926;2024-03-08T01:50:05;100246.16;;;5.56;100.00
46836;BME280;32573;51.290;6.926;2024-03-08T01:52:34;100250.47;;;5.56;100.00
46836;BME280;32573;51.290;6.926;2024-03-08T01:55:05;100249.66;;;5.57;100.00
46836;BME280;32573;51.290;6.926;2024-03-08T01:57:35;100245.25;;;5.56;100.00
46836;BME280;32573;51.290;6.926;2024-03-08T02:00:07;100240.06;;;5.56;100.00
46836;BME280;32573;51.290;6.926;2024-03-08T02:02:42;100238.31;;;5.55;100.00
46836;BME280;32573;51.290;6.926;2024-03-08T02:05:11;100235.63;;;5.53;100.00
46836;BME280;32573;51.290;6.926;2024-03-08T02:07:41;100223.47;;;5.52;100.00
46836;BME280;32573;51.290;6.926;2024-03-08T02:10:10;100227.78;;;5.52;100.00
46836;BME280;32573;51.290;6.926;2024-03-08T02:12:39;100224.22;;;5.50;100.00
46836;BME280;32573;51.290;6.926;2024-03-08T02:15:09;100229.41;;;5.50;100.00
46836;BME280;32573;51.290;6.926;2024-03-08T02:17:38;100224.13;;;5.48;100.00
46836;BME280;32573;51.290;6.926;2024-03-08T02:20:08;100219.75;;;5.47;100.00
46836;BME280;32573;51.290;6.926;2024-03-08T02:22:42;100224.06;;;5.47;100.00
46836;BME280;32573;51.290;6.926;2024-03-08T02:25:11;100217.06;;;5.46;100.00
46836;BME280;32573;51.290;6.926;2024-03-08T02:27:39;100212.63;;;5.43;100.00
46836;BME280;32573;51.290;6.926;2024-03-08T02:30:09;100217.72;;;5.41;100.00
46836;BME280;32573;51.290;6.926;2024-03-08T02:32:40;100213.38;;;5.40;100.00
46836;BME280;32573;51.290;6.926;2024-03-08T02:35:08;100209.81;;;5.38;100.00
46836;BME280;32573;51.290;6.926;2024-03-08T02:37:37;100206.31;;;5.38;100.00
46836;BME280;32573;51.290;6.926;2024-03-08T02:40:08;100204.56;;;5.37;100.00
46836;BME280;32573;51.290;6.926;2024-03-08T02:42:37;100207.16;;;5.37;100.00
46836;BME280;32573;51.290;6.926;2024-03-08T02:45:06;100201.78;;;5.34;100.00
46836;BME280;32573;51.290;6.926;2024-03-08T02:47:37;100203.50;;;5.33;100.00
46836;BME280;32573;51.290;6.926;2024-03-08T02:50:06;100206.09;;;5.33;100.00
46836;BME280;32573;51.290;6.926;2024-03-08T02:52:35;100191.25;;;5.31;100.00
46836;BME280;32573;51.290;6.926;2024-03-08T02:55:04;100190.38;;;5.30;100.00
46836;BME280;32573;51.290;6.926;2024-03-08T02:57:34;100182.44;;;5.27;100.00
46836;BME280;32573;51.290;6.926;2024-03-08T03:00:03;100179.84;;;5.27;100.00
46836;BME280;32573;51.290;6.926;2024-03-08T03:02:33;100182.38;;;5.26;100.00
46836;BME280;32573;51.290;6.926;2024-03-08T03:05:01;100179.72;;;5.24;100.00
46836;BME280;32573;51.290;6.926;2024-03-08T03:07:32;100167.53;;;5.23;100.00
46836;BME280;32573;51.290;6.926;2024-03-08T03:10:01;100166.66;;;5.23;100.00
46836;BME280;32573;51.290;6.926;2024-03-08T03:12:31;100173.47;;;5.21;100.00
46836;BME280;32573;51.290;6.926;2024-03-08T03:15:02;100166.50;;;5.19;100.00
46836;BME280;32573;51.290;6.926;2024-03-08T03:17:31;100164.72;;;5.18;100.00
46836;BME280;32573;51.290;6.926;2024-03-08T03:20:00;100168.19;;;5.19;100.00
46836;BME280;32573;51.290;6.926;2024-03-08T03:22:31;100166.41;;;5.18;100.00
46836;BME280;32573;51.290;6.926;2024-03-08T03:25:02;100162.06;;;5.17;100.00
46836;BME280;32573;51.290;6.926;2024-03-08T03:27:33;100158.63;;;5.18;100.00
46836;BME280;32573;51.290;6.926;2024-03-08T03:30:05;100155.06;;;5.16;100.00
46836;BME280;32573;51.290;6.926;2024-03-08T03:32:49;100144.69;;;5.16;100.00
46836;BME280;32573;51.290;6.926;2024-03-08T03:35:18;100148.13;;;5.15;100.00
46836;BME280;32573;51.290;6.926;2024-03-08T03:37:48;100149.88;;;5.16;100.00
46836;BME280;32573;51.290;6.926;2024-03-08T03:40:29;100151.50;;;5.14;100.00
46836;BME280;32573;51.290;6.926;2024-03-08T03:42:58;100146.31;;;5.14;100.00
46836;BME280;32573;51.290;6.926;2024-03-08T03:45:28;100144.66;;;5.14;100.00
46836;BME280;32573;51.290;6.926;2024-03-08T03:47:56;100144.56;;;5.13;100.00
46836;BME280;32573;51.290;6.926;2024-03-08T03:50:28;100146.31;;;5.14;100.00
46836;BME280;32573;51.290;6.926;2024-03-08T03:52:56;100147.16;;;5.13;100.00
46836;BME280;32573;51.290;6.926;2024-03-08T03:55:25;100147.16;;;5.13;100.00
46836;BME280;32573;51.290;6.926;2024-03-08T03:57:54;100140.19;;;5.12;100.00
46836;BME280;32573;51.290;6.926;2024-03-08T04:00:22;100146.19;;;5.11;100.00
46836;BME280;32573;51.290;6.926;2024-03-08T04:02:52;100141.00;;;5.11;100.00
46836;BME280;32573;51.290;6.926;2024-03-08T04:05:23;100144.41;;;5.10;100.00
46836;BME280;32573;51.290;6.926;2024-03-08T04:07:52;100138.25;;;5.08;100.00
46836;BME280;32573;51.290;6.926;2024-03-08T04:10:20;100139.06;;;5.07;100.00
46836;BME280;32573;51.290;6.926;2024-03-08T04:12:48;100140.75;;;5.06;100.00
46836;BME280;32573;51.290;6.926;2024-03-08T04:15:20;100136.41;;;5.05;100.00
46836;BME280;32573;51.290;6.926;2024-03-08T04:17:48;100136.25;;;5.02;100.00
46836;BME280;32573;51.290;6.926;2024-03-08T04:20:18;100132.75;;;5.02;100.00
46836;BME280;32573;51.290;6.926;2024-03-08T04:22:46;100131.81;;;5.00;100.00
46836;BME280;32573;51.290;6.926;2024-03-08T04:25:17;100131.81;;;5.00;100.00
46836;BME280;32573;51.290;6.926;2024-03-08T04:27:45;100131.63;;;4.96;100.00
46836;BME280;32573;51.290;6.926;2024-03-08T04:30:14;100136.75;;;4.95;100.00
46836;BME280;32573;51.290;6.926;2024-03-08T04:32:42;100125.50;;;4.94;100.00
46836;BME280;32573;51.290;6.926;2024-03-08T04:35:11;100124.53;;;4.92;100.00
46836;BME280;32573;51.290;6.926;2024-03-08T04:37:41;100121.94;;;4.92;100.00
46836;BME280;32573;51.290;6.926;2024-03-08T04:40:10;100114.00;;;4.89;100.00
46836;BME280;32573;51.290;6.926;2024-03-08T04:42:39;100119.19;;;4.89;100.00
46836;BME280;32573;51.290;6.926;2024-03-08T04:45:09;100120.97;;;4.90;100.00
46836;BME280;32573;51.290;6.926;2024-03-08T04:47:38;100114.97;;;4.91;100.00
46836;BME280;32573;51.290;6.926;2024-03-08T04:50:07;100123.56;;;4.90;100.00
46836;BME280;32573;51.290;6.926;2024-03-08T04:52:36;100120.13;;;4.91;100.00
46836;BME280;32573;51.290;6.926;2024-03-08T04:55:06;100110.59;;;4.90;100.00
46836;BME280;32573;51.290;6.926;2024-03-08T04:57:35;100112.34;;;4.91;100.00
46836;BME280;32573;51.290;6.926;2024-03-08T05:00:04;100104.44;;;4.88;100.00
46836;BME280;32573;51.290;6.926;2024-03-08T05:02:38;100104.53;;;4.90;100.00
46836;BME280;32573;51.290;6.926;2024-03-08T05:05:07;100096.66;;;4.88;100.00
46836;BME280;32573;51.290;6.926;2024-03-08T05:07:36;100096.66;;;4.88;100.00
46836;BME280;32573;51.290;6.926;2024-03-08T05:10:07;100095.88;;;4.89;100.00
46836;BME280;32573;51.290;6.926;2024-03-08T05:12:36;100091.47;;;4.88;100.00
46836;BME280;32573;51.290;6.926;2024-03-08T05:15:06;100090.69;;;4.89;100.00
46836;BME280;32573;51.290;6.926;2024-03-08T05:17:35;100089.84;;;4.90;100.00
46836;BME280;32573;51.290;6.926;2024-03-08T05:20:04;100086.44;;;4.91;100.00
46836;BME280;32573;51.290;6.926;2024-03-08T05:22:35;100086.59;;;4.94;100.00
46836;BME280;32573;51.290;6.926;2024-03-08T05:25:04;100090.13;;;4.96;100.00
46836;BME280;32573;51.290;6.926;2024-03-08T05:27:35;100084.94;;;4.96;100.00
46836;BME280;32573;51.290;6.926;2024-03-08T05:30:05;100083.31;;;4.98;100.00
46836;BME280;32573;51.290;6.926;2024-03-08T05:32:34;100079.94;;;5.00;100.00
46836;BME280;32573;51.290;6.926;2024-03-08T05:35:02;100083.47;;;5.02;100.00
46836;BME280;32573;51.290;6.926;2024-03-08T05:37:34;100084.38;;;5.02;100.00
46836;BME280;32573;51.290;6.926;2024-03-08T05:40:03;100084.38;;;5.02;100.00
46836;BME280;32573;51.290;6.926;2024-03-08T05:42:43;100080.06;;;5.03;100.00
46836;BME280;32573;51.290;6.926;2024-03-08T05:45:12;100074.16;;;5.05;100.00
46836;BME280;32573;51.290;6.926;2024-03-08T05:47:41;100079.41;;;5.07;100.00
46836;BME280;32573;51.290;6.926;2024-03-08T05:50:10;100080.22;;;5.06;100.00
46836;BME280;32573;51.290;6.926;2024-03-08T05:52:39;100070.72;;;5.06;100.00
46836;BME280;32573;51.290;6.926;2024-03-08T05:55:07;100074.25;;;5.07;100.00
46836;BME280;32573;51.290;6.926;2024-03-08T05:57:37;100072.53;;;5.07;100.00
46836;BME280;32573;51.290;6.926;2024-03-08T06:00:09;100073.31;;;5.06;100.00
46836;BME280;32573;51.290;6.926;2024-03-08T06:02:39;100068.22;;;5.08;100.00
46836;BME280;32573;51.290;6.926;2024-03-08T06:05:09;100063.03;;;5.08;100.00
46836;BME280;32573;51.290;6.926;2024-03-08T06:07:37;100069.97;;;5.09;100.00
46836;BME280;32573;51.290;6.926;2024-03-08T06:10:08;100064.78;;;5.09;100.00
46836;BME280;32573;51.290;6.926;2024-03-08T06:12:39;100059.59;;;5.09;100.00
46836;BME280;32573;51.290;6.926;2024-03-08T06:15:10;100063.13;;;5.09;100.00
46836;BME280;32573;51.290;6.926;2024-03-08T06:17:42;100062.38;;;5.12;100.00
46836;BME280;32573;51.290;6.926;2024-03-08T06:20:11;100058.06;;;5.12;100.00
46836;BME280;32573;51.290;6.926;2024-03-08T06:22:40;100070.28;;;5.15;100.00
46836;BME280;32573;51.290;6.926;2024-03-08T06:25:09;100065.25;;;5.18;100.00
46836;BME280;32573;51.290;6.926;2024-03-08T06:27:38;100061.03;;;5.20;100.00
46836;BME280;32573;51.290;6.926;2024-03-08T06:30:07;100068.84;;;5.22;100.00
46836;BME280;32573;51.290;6.926;2024-03-08T06:32:38;100063.66;;;5.22;100.00
46836;BME280;32573;51.290;6.926;2024-03-08T06:35:08;100074.03;;;5.22;100.00
46836;BME280;32573;51.290;6.926;2024-03-08T06:37:37;100063.75;;;5.23;100.00
46836;BME280;32573;51.290;6.926;2024-03-08T06:40:07;100062.88;;;5.23;100.00
46836;BME280;32573;51.290;6.926;2024-03-08T06:42:39;100063.84;;;5.25;100.00
46836;BME280;32573;51.290;6.926;2024-03-08T06:45:08;100057.78;;;5.24;100.00
46836;BME280;32573;51.290;6.926;2024-03-08T06:47:38;100065.69;;;5.27;100.00
46836;BME280;32573;51.290;6.926;2024-03-08T06:50:09;100057.97;;;5.29;100.00
46836;BME280;32573;51.290;6.926;2024-03-08T06:52:38;100054.47;;;5.28;100.00
46836;BME280;32573;51.290;6.926;2024-03-08T06:55:07;100060.63;;;5.30;100.00
46836;BME280;32573;51.290;6.926;2024-03-08T06:57:39;100057.22;;;5.31;100.00
46836;BME280;32573;51.290;6.926;2024-03-08T07:00:08;100058.13;;;5.32;100.00
46836;BME280;32573;51.290;6.926;2024-03-08T07:02:41;100061.75;;;5.35;100.00
46836;BME280;32573;51.290;6.926;2024-03-08T07:05:12;100056.63;;;5.37;100.00
46836;BME280;32573;51.290;6.926;2024-03-08T07:07:41;100062.84;;;5.40;100.00
46836;BME280;32573;51.290;6.926;2024-03-08T07:10:09;100061.22;;;5.43;100.00
46836;BME280;32573;51.290;6.926;2024-03-08T07:12:39;100055.28;;;5.45;100.00
46836;BME280;32573;51.290;6.926;2024-03-08T07:15:07;100055.41;;;5.48;100.00
46836;BME280;32573;51.290;6.926;2024-03-08T07:17:42;100052.06;;;5.51;100.00
46836;BME280;32573;51.290;6.926;2024-03-08T07:20:12;100049.59;;;5.54;100.00
46836;BME280;32573;51.290;6.926;2024-03-08T07:22:41;100056.66;;;5.56;100.00
46836;BME280;32573;51.290;6.926;2024-03-08T07:25:14;100055.09;;;5.60;100.00
46836;BME280;32573;51.290;6.926;2024-03-08T07:27:48;100057.00;;;5.64;100.00
46836;BME280;32573;51.290;6.926;2024-03-08T07:30:17;100060.56;;;5.66;100.00
46836;BME280;32573;51.290;6.926;2024-03-08T07:33:01;100050.34;;;5.69;100.00
46836;BME280;32573;51.290;6.926;2024-03-08T07:35:30;100051.44;;;5.74;100.00
46836;BME280;32573;51.290;6.926;2024-03-08T07:37:59;100046.28;;;5.76;100.00
46836;BME280;32573;51.290;6.926;2024-03-08T07:40:27;100042.94;;;5.78;100.00
46836;BME280;32573;51.290;6.926;2024-03-08T07:42:55;100044.78;;;5.81;100.00
46836;BME280;32573;51.290;6.926;2024-03-08T07:45:25;100040.63;;;5.84;100.00
46836;BME280;32573;51.290;6.926;2024-03-08T07:47:53;100041.63;;;5.88;100.00
46836;BME280;32573;51.290;6.926;2024-03-08T07:50:24;100039.16;;;5.91;100.00
46836;BME280;32573;51.290;6.926;2024-03-08T07:52:53;100039.41;;;5.96;100.00
46836;BME280;32573;51.290;6.926;2024-03-08T07:55:22;100029.16;;;5.99;100.00
46836;BME280;32573;51.290;6.926;2024-03-08T07:57:51;100026.72;;;6.02;100.00
46836;BME280;32573;51.290;6.926;2024-03-08T08:00:20;100019.03;;;6.05;100.00
46836;BME280;32573;51.290;6.926;2024-03-08T08:02:48;100018.38;;;6.09;100.00
46836;BME280;32573;51.290;6.926;2024-03-08T08:05:17;100015.91;;;6.12;100.00
46836;BME280;32573;51.290;6.926;2024-03-08T08:07:47;100014.25;;;6.14;100.00
46836;BME280;32573;51.290;6.926;2024-03-08T08:10:19;100007.53;;;6.19;100.00
46836;BME280;32573;51.290;6.926;2024-03-08T08:12:50;100012.88;;;6.22;100.00
46836;BME280;32573;51.290;6.926;2024-03-08T08:15:18;100006.97;;;6.26;100.00
46836;BME280;32573;51.290;6.926;2024-03-08T08:17:47;100007.16;;;6.31;100.00
46836;BME280;32573;51.290;6.926;2024-03-08T08:20:15;99999.56;;;6.36;100.00
46836;BME280;32573;51.290;6.926;2024-03-08T08:22:49;99985.88;;;6.40;100.00
46836;BME280;32573;51.290;6.926;2024-03-08T08:25:17;99988.66;;;6.44;100.00
46836;BME280;32573;51.290;6.926;2024-03-08T08:27:47;99987.16;;;6.50;100.00
46836;BME280;32573;51.290;6.926;2024-03-08T08:30:15;99988.16;;;6.53;100.00
46836;BME280;32573;51.290;6.926;2024-03-08T08:32:45;99975.34;;;6.58;100.00
46836;BME280;32573;51.290;6.926;2024-03-08T08:35:15;99982.44;;;6.62;100.00
46836;BME280;32573;51.290;6.926;2024-03-08T08:37:46;99977.44;;;6.66;100.00
46836;BME280;32573;51.290;6.926;2024-03-08T08:40:16;99978.50;;;6.72;100.00
46836;BME280;32573;51.290;6.926;2024-03-08T08:42:46;99973.47;;;6.76;100.00
46836;BME280;32573;51.290;6.926;2024-03-08T08:45:16;99967.56;;;6.80;100.00
46836;BME280;32573;51.290;6.926;2024-03-08T08:47:51;99965.16;;;6.85;100.00
46836;BME280;32573;51.290;6.926;2024-03-08T08:50:22;99957.53;;;6.89;100.00
46836;BME280;32573;51.290;6.926;2024-03-08T08:52:51;99957.72;;;6.94;100.00
46836;BME280;32573;51.290;6.926;2024-03-08T08:55:22;99956.09;;;6.98;100.00
46836;BME280;32573;51.290;6.926;2024-03-08T08:57:53;99954.50;;;7.01;100.00
46836;BME280;32573;51.290;6.926;2024-03-08T09:00:23;99943.38;;;7.05;100.00
46836;BME280;32573;51.290;6.926;2024-03-08T09:02:55;99940.09;;;7.09;100.00
46836;BME280;32573;51.290;6.926;2024-03-08T09:05:25;99940.28;;;7.14;100.00
46836;BME280;32573;51.290;6.926;2024-03-08T09:07:54;99936.06;;;7.18;100.00
46836;BME280;32573;51.290;6.926;2024-03-08T09:10:24;99938.00;;;7.23;100.00
46836;BME280;32573;51.290;6.926;2024-03-08T09:12:56;99933.81;;;7.27;100.00
46836;BME280;32573;51.290;6.926;2024-03-08T09:15:27;99929.66;;;7.32;100.00
46836;BME280;32573;51.290;6.926;2024-03-08T09:17:56;99933.25;;;7.35;100.00
46836;BME280;32573;51.290;6.926;2024-03-08T09:20:26;99923.00;;;7.40;100.00
46836;BME280;32573;51.290;6.926;2024-03-08T09:22:55;99928.38;;;7.45;100.00
46836;BME280;32573;51.290;6.926;2024-03-08T09:25:25;99917.25;;;7.49;100.00
46836;BME280;32573;51.290;6.926;2024-03-08T09:27:53;99914.78;;;7.53;100.00
46836;BME280;32573;51.290;6.926;2024-03-08T09:30:22;99916.75;;;7.59;100.00
46836;BME280;32573;51.290;6.926;2024-03-08T09:32:51;99924.69;;;7.64;100.00
46836;BME280;32573;51.290;6.926;2024-03-08T09:35:20;99916.19;;;7.68;100.00
46836;BME280;32573;51.290;6.926;2024-03-08T09:37:48;99906.78;;;7.71;100.00
46836;BME280;32573;51.290;6.926;2024-03-08T09:40:19;99915.63;;;7.76;100.00
46836;BME280;32573;51.290;6.926;2024-03-08T09:42:49;99905.31;;;7.80;100.00
46836;BME280;32573;51.290;6.926;2024-03-08T09:45:20;99901.06;;;7.83;100.00
46836;BME280;32573;51.290;6.926;2024-03-08T09:47:49;99902.97;;;7.87;100.00
46836;BME280;32573;51.290;6.926;2024-03-08T09:50:18;99891.81;;;7.91;100.00
46836;BME280;32573;51.290;6.926;2024-03-08T09:52:48;99899.75;;;7.96;100.00
46836;BME280;32573;51.290;6.926;2024-03-08T09:55:17;99892.06;;;7.99;100.00
46836;BME280;32573;51.290;6.926;2024-03-08T09:57:51;99887.06;;;8.05;100.00
46836;BME280;32573;51.290;6.926;2024-03-08T10:00:38;99880.25;;;8.09;100.00
46836;BME280;32573;51.290;6.926;2024-03-08T10:03:08;99878.59;;;8.12;100.00
46836;BME280;32573;51.290;6.926;2024-03-08T10:05:41;99870.09;;;8.18;100.00
46836;BME280;32573;51.290;6.926;2024-03-08T10:08:12;99869.38;;;8.22;100.00
46836;BME280;32573;51.290;6.926;2024-03-08T10:10:40;99861.69;;;8.27;100.00
46836;BME280;32573;51.290;6.926;2024-03-08T10:13:11;99865.34;;;8.32;100.00
46836;BME280;32573;51.290;6.926;2024-03-08T10:15:41;99871.53;;;8.35;100.00
46836;BME280;32573;51.290;6.926;2024-03-08T10:18:10;99858.66;;;8.40;100.00
46836;BME280;32573;51.290;6.926;2024-03-08T10:20:39;99866.66;;;8.45;100.00
46836;BME280;32573;51.290;6.926;2024-03-08T10:23:08;99861.50;;;8.48;100.00
46836;BME280;32573;51.290;6.926;2024-03-08T10:25:38;99848.63;;;8.52;100.00
46836;BME280;32573;51.290;6.926;2024-03-08T10:28:07;99853.13;;;8.58;100.00
46836;BME280;32573;51.290;6.926;2024-03-08T10:30:37;99844.56;;;8.62;100.00
46836;BME280;32573;51.290;6.926;2024-03-08T10:33:06;99839.50;;;8.67;100.00
46836;BME280;32573;51.290;6.926;2024-03-08T10:35:37;99841.34;;;8.71;100.00
46836;BME280;32573;51.290;6.926;2024-03-08T10:38:07;99820.63;;;8.75;100.00
46836;BME280;32573;51.290;6.926;2024-03-08T10:40:41;99822.50;;;8.81;100.00
46836;BME280;32573;51.290;6.926;2024-03-08T10:43:22;99825.25;;;8.85;100.00
46836;BME280;32573;51.290;6.926;2024-03-08T10:46:04;99811.47;;;8.90;100.00
46836;BME280;32573;51.290;6.926;2024-03-08T10:48:41;99812.44;;;8.93;100.00
46836;BME280;32573;51.290;6.926;2024-03-08T10:51:12;99814.34;;;8.99;100.00
46836;BME280;32573;51.290;6.926;2024-03-08T10:53:40;99810.97;;;9.03;100.00
46836;BME280;32573;51.290;6.926;2024-03-08T10:56:09;99814.59;;;9.08;100.00
46836;BME280;32573;51.290;6.926;2024-03-08T10:58:38;99802.53;;;9.13;100.00
46836;BME280;32573;51.290;6.926;2024-03-08T11:01:09;99793.09;;;9.18;100.00
46836;BME280;32573;51.290;6.926;2024-03-08T11:03:47;99794.13;;;9.23;100.00
46836;BME280;32573;51.290;6.926;2024-03-08T11:06:23;99795.97;;;9.27;100.00
46836;BME280;32573;51.290;6.926;2024-03-08T11:08:51;99788.28;;;9.32;100.00
46836;BME280;32573;51.290;6.926;2024-03-08T11:11:27;99780.50;;;9.35;100.00
46836;BME280;32573;51.290;6.926;2024-03-08T11:14:02;99773.66;;;9.39;100.00
46836;BME280;32573;51.290;6.926;2024-03-08T11:16:40;99759.81;;;9.43;100.00
46836;BME280;32573;51.290;6.926;2024-03-08T11:19:27;99772.94;;;9.46;100.00
46836;BME280;32573;51.290;6.926;2024-03-08T11:22:00;99767.81;;;9.49;100.00
46836;BME280;32573;51.290;6.926;2024-03-08T11:24:39;99754.91;;;9.55;100.00
46836;BME280;32573;51.290;6.926;2024-03-08T11:27:09;99756.75;;;9.59;100.00
46836;BME280;32573;51.290;6.926;2024-03-08T11:29:39;99749.00;;;9.62;100.00
46836;BME280;32573;51.290;6.926;2024-03-08T11:32:10;99743.00;;;9.66;100.00
46836;BME280;32573;51.290;6.926;2024-03-08T11:34:40;99734.44;;;9.72;100.00
46836;BME280;32573;51.290;6.926;2024-03-08T11:37:13;99731.94;;;9.77;100.00
46836;BME280;32573;51.290;6.926;2024-03-08T11:39:49;99726.81;;;9.83;100.00
46836;BME280;32573;51.290;6.926;2024-03-08T11:42:22;99742.69;;;9.89;100.00
46836;BME280;32573;51.290;6.926;2024-03-08T11:44:50;99729.72;;;9.93;100.00
46836;BME280;32573;51.290;6.926;2024-03-08T11:47:22;99725.47;;;9.99;100.00
46836;BME280;32573;51.290;6.926;2024-03-08T11:49:50;99712.47;;;10.03;100.00
46836;BME280;32573;51.290;6.926;2024-03-08T11:52:21;99715.22;;;10.08;100.00
46836;BME280;32573;51.290;6.926;2024-03-08T11:54:53;99709.25;;;10.13;100.00
46836;BME280;32573;51.290;6.926;2024-03-08T11:57:25;99710.22;;;10.19;100.00
46836;BME280;32573;51.290;6.926;2024-03-08T11:59:56;99696.41;;;10.24;100.00
46836;BME280;32573;51.290;6.926;2024-03-08T12:02:26;99704.38;;;10.29;100.00
46836;BME280;32573;51.290;6.926;2024-03-08T12:04:58;99689.63;;;10.32;100.00
46836;BME280;32573;51.290;6.926;2024-03-08T12:07:30;99690.59;;;10.36;100.00
46836;BME280;32573;51.290;6.926;2024-03-08T12:10:16;99695.88;;;10.41;100.00
46836;BME280;32573;51.290;6.926;2024-03-08T12:12:46;99685.56;;;10.47;100.00
46836;BME280;32573;51.290;6.926;2024-03-08T12:15:16;99683.97;;;10.53;100.00
46836;BME280;32573;51.290;6.926;2024-03-08T12:17:49;99671.84;;;10.58;100.00
46836;BME280;32573;51.290;6.926;2024-03-08T12:20:20;99671.09;;;10.64;100.00
46836;BME280;32573;51.290;6.926;2024-03-08T12:22:50;99671.19;;;10.70;100.00
46836;BME280;32573;51.290;6.926;2024-03-08T12:25:21;99675.69;;;10.76;100.00
46836;BME280;32573;51.290;6.926;2024-03-08T12:27:49;99669.66;;;10.82;100.00
46836;BME280;32573;51.290;6.926;2024-03-08T12:30:21;99661.91;;;10.88;100.00
46836;BME280;32573;51.290;6.926;2024-03-08T12:32:54;99653.31;;;10.93;100.00
46836;BME280;32573;51.290;6.926;2024-03-08T12:35:27;99643.75;;;10.97;100.00
46836;BME280;32573;51.290;6.926;2024-03-08T12:37:56;99639.44;;;11.00;100.00
46836;BME280;32573;51.290;6.926;2024-03-08T12:40:27;99636.06;;;11.06;100.00
46836;BME280;32573;51.290;6.926;2024-03-08T12:43:01;99626.56;;;11.11;100.00
46836;BME280;32573;51.290;6.926;2024-03-08T12:45:30;99629.31;;;11.19;100.00
46836;BME280;32573;51.290;6.926;2024-03-08T12:48:01;99632.00;;;11.25;100.00
46836;BME280;32573;51.290;6.926;2024-03-08T12:50:34;99626.88;;;11.31;100.00
46836;BME280;32573;51.290;6.926;2024-03-08T12:53:07;99624.34;;;11.37;100.00
46836;BME280;32573;51.290;6.926;2024-03-08T12:55:37;99624.47;;;11.43;100.00
46836;BME280;32573;51.290;6.926;2024-03-08T12:58:06;99617.56;;;11.49;100.00
46836;BME280;32573;51.290;6.926;2024-03-08T13:00:35;99610.63;;;11.54;100.00
46836;BME280;32573;51.290;6.926;2024-03-08T13:03:06;99606.34;;;11.59;100.00
46836;BME280;32573;51.290;6.926;2024-03-08T13:05:42;99606.41;;;11.65;100.00
46836;BME280;32573;51.290;6.926;2024-03-08T13:08:11;99605.66;;;11.71;100.00